Time;durP1;ratioP1;P1;durP2;ratioP2;P2;SDS_P1;SDS_P2;PMS_P1;PMS_P2;Temp;Humidity;BMP_temperature;BMP_pressure;BME280_temperature;BME280_humidity;BME280_pressure;Samples;Min_cycle;Max_cycle;Signal;HPM_P1;HPM_P2
2021/05/10 00:01:35;;;;;;;58.20;2.60;;;15.90;1.00;;;;;;5114003;28;20474;-66
2021/05/10 00:04:02;;;;;;;57.80;2.60;;;15.90;1.00;;;;;;5113700;28;20438;-67
2021/05/10 00:06:29;;;;;;;57.67;2.60;;;15.80;1.00;;;;;;5113684;28;20927;-66
2021/05/10 00:08:56;;;;;;;57.43;2.43;;;15.80;1.00;;;;;;5114285;28;20475;-67
2021/05/10 00:11:24;;;;;;;57.67;2.60;;;15.70;1.00;;;;;;5114589;28;20461;-66
2021/05/10 00:13:52;;;;;;;57.63;2.80;;;15.70;1.00;;;;;;5109876;28;20583;-66
2021/05/10 00:16:19;;;;;;;57.77;2.53;;;15.70;1.00;;;;;;5093175;28;20973;-67
2021/05/10 00:18:45;;;;;;;57.87;2.70;;;15.70;1.00;;;;;;5093327;28;20446;-66
2021/05/10 00:21:11;;;;;;;58.40;3.20;;;15.60;1.00;;;;;;5093631;28;20568;-67
2021/05/10 00:23:38;;;;;;;90.17;19.10;;;15.60;1.00;;;;;;5093012;28;20451;-67
2021/05/10 00:26:04;;;;;;;57.03;2.50;;;15.50;1.00;;;;;;5093242;28;20525;-66
2021/05/10 00:28:32;;;;;;;937.97;191.60;;;15.40;1.00;;;;;;5093458;28;20461;-66
2021/05/10 00:30:58;;;;;;;58.10;2.60;;;15.40;1.00;;;;;;5093243;28;20497;-65
2021/05/10 00:33:24;;;;;;;57.70;2.40;;;15.40;1.00;;;;;;5092738;28;20533;-66
2021/05/10 00:35:51;;;;;;;57.17;2.40;;;15.30;1.00;;;;;;5093219;28;20856;-65
2021/05/10 00:38:17;;;;;;;57.60;2.37;;;15.30;1.00;;;;;;5092619;28;21007;-66
2021/05/10 00:40:44;;;;;;;57.70;2.50;;;15.20;1.00;;;;;;5092996;28;20514;-66
2021/05/10 00:43:10;;;;;;;287.00;32.93;;;15.10;1.00;;;;;;5093132;28;20909;-66
2021/05/10 00:45:37;;;;;;;58.03;2.70;;;15.10;1.00;;;;;;5102409;28;20551;-66
2021/05/10 00:48:05;;;;;;;57.60;2.50;;;15.00;1.00;;;;;;5113044;28;20445;-67
2021/05/10 00:50:31;;;;;;;57.57;2.50;;;15.00;1.00;;;;;;5113321;28;20548;-66
2021/05/10 00:52:58;;;;;;;57.43;2.50;;;14.90;1.00;;;;;;5113123;28;20966;-67
2021/05/10 00:55:27;;;;;;;58.10;2.67;;;14.90;1.00;;;;;;5113187;28;20449;-66
2021/05/10 00:58:01;;;;;;;57.27;2.40;;;14.90;1.00;;;;;;5113156;28;21006;-66
2021/05/10 01:00:29;;;;;;;57.27;2.20;;;14.80;1.00;;;;;;5112776;28;20486;-65
2021/05/10 01:02:56;;;;;;;57.33;2.47;;;14.70;1.00;;;;;;5112634;28;20528;-65
2021/05/10 01:05:22;;;;;;;218.63;18.43;;;14.60;1.00;;;;;;5112765;28;20457;-66
2021/05/10 01:07:49;;;;;;;57.40;2.30;;;14.60;1.00;;;;;;5113043;28;20821;-67
2021/05/10 01:10:18;;;;;;;57.47;2.20;;;14.50;1.00;;;;;;5112954;27;20536;-65
2021/05/10 01:12:44;;;;;;;57.23;2.60;;;14.50;1.00;;;;;;5112521;28;21049;-65
2021/05/10 01:15:13;;;;;;;57.77;2.50;;;14.40;1.00;;;;;;5112061;28;20532;-67
2021/05/10 01:17:41;;;;;;;57.40;2.37;;;14.40;1.00;;;;;;5111984;28;21025;-65
2021/05/10 01:20:11;;;;;;;57.90;2.50;;;14.30;1.00;;;;;;5112680;28;20542;-66
2021/05/10 01:22:43;;;;;;;57.27;2.20;;;14.30;1.00;;;;;;5112304;28;20455;-66
2021/05/10 01:25:12;;;;;;;57.30;2.20;;;14.20;1.00;;;;;;5112292;28;20484;-65
2021/05/10 01:27:39;;;;;;;91.87;7.00;;;14.20;1.00;;;;;;5112331;28;20532;-67
2021/05/10 01:30:07;;;;;;;59.00;3.40;;;14.20;1.00;;;;;;5112561;28;20528;-65
2021/05/10 01:32:34;;;;;;;59.17;3.00;;;14.10;1.00;;;;;;5112200;28;20478;-66
2021/05/10 01:35:00;;;;;;;57.53;2.33;;;14.00;1.00;;;;;;5112248;28;20505;-65
2021/05/10 01:37:27;;;;;;;57.30;2.40;;;14.00;1.00;;;;;;5113021;28;20935;-66
2021/05/10 01:39:54;;;;;;;57.47;2.50;;;13.90;1.00;;;;;;5112177;28;20568;-66
2021/05/10 01:42:21;;;;;;;57.97;2.60;;;13.90;1.00;;;;;;5112053;28;20513;-66
2021/05/10 01:44:47;;;;;;;57.17;2.40;;;13.80;1.00;;;;;;5112178;28;20981;-66
2021/05/10 01:47:13;;;;;;;57.90;2.80;;;13.80;1.00;;;;;;5112234;28;20451;-65
2021/05/10 01:49:45;;;;;;;57.53;2.60;;;13.80;1.00;;;;;;5112123;28;20930;-65
2021/05/10 01:52:13;;;;;;;57.80;2.90;;;13.80;1.00;;;;;;5111881;28;20555;-66
2021/05/10 01:54:39;;;;;;;57.47;2.70;;;13.70;1.00;;;;;;5111877;28;20887;-66
2021/05/10 01:57:09;;;;;;;57.50;2.73;;;13.70;1.00;;;;;;5111932;28;20481;-67
2021/05/10 01:59:36;;;;;;;57.73;2.60;;;13.60;1.00;;;;;;5112314;28;20477;-67
2021/05/10 02:02:02;;;;;;;57.57;2.67;;;13.60;1.00;;;;;;5111770;28;20552;-66
2021/05/10 02:04:29;;;;;;;57.47;2.37;;;13.50;1.00;;;;;;5111807;28;20990;-66
2021/05/10 02:07:01;;;;;;;58.00;2.80;;;13.50;1.00;;;;;;5111716;28;20484;-66
2021/05/10 02:09:27;;;;;;;57.67;2.70;;;13.40;1.00;;;;;;5111869;28;20484;-66
2021/05/10 02:11:54;;;;;;;57.47;2.60;;;13.40;1.00;;;;;;5111766;28;20473;-65
2021/05/10 02:14:21;;;;;;;57.47;2.37;;;13.40;1.00;;;;;;5111689;28;20484;-67
2021/05/10 02:16:47;;;;;;;58.40;3.43;;;13.40;1.00;;;;;;5111170;28;20462;-66
2021/05/10 02:19:13;;;;;;;58.20;2.97;;;13.40;1.00;;;;;;5111884;28;20475;-66
2021/05/10 02:21:40;;;;;;;57.13;2.20;;;13.40;1.00;;;;;;5111511;28;20492;-66
2021/05/10 02:24:08;;;;;;;57.33;2.50;;;13.40;1.00;;;;;;5111191;28;20535;-67
2021/05/10 02:26:34;;;;;;;57.90;2.30;;;13.40;1.00;;;;;;5112092;28;20445;-65
2021/05/10 02:29:01;;;;;;;57.50;2.33;;;13.40;1.00;;;;;;5112763;28;20449;-67
2021/05/10 02:31:29;;;;;;;57.40;2.40;;;13.30;1.00;;;;;;5116041;28;20465;-65
2021/05/10 02:33:55;;;;;;;57.60;2.77;;;13.30;1.00;;;;;;5115264;28;20446;-66
2021/05/10 02:36:21;;;;;;;57.60;2.40;;;13.20;1.00;;;;;;5115690;28;20477;-66
2021/05/10 02:38:48;;;;;;;57.77;3.07;;;13.20;1.00;;;;;;5116116;28;20441;-65
2021/05/10 02:41:14;;;;;;;57.43;2.50;;;13.10;1.00;;;;;;5115749;28;20576;-66
2021/05/10 02:43:40;;;;;;;57.67;2.43;;;13.10;1.00;;;;;;5115363;28;20463;-66
2021/05/10 02:46:07;;;;;;;57.60;2.60;;;13.00;1.00;;;;;;5115833;28;20528;-66
2021/05/10 02:48:34;;;;;;;57.40;2.50;;;13.00;1.00;;;;;;5115376;28;20481;-66
2021/05/10 02:51:00;;;;;;;57.27;2.40;;;13.00;1.00;;;;;;5115256;28;20485;-65
2021/05/10 02:53:26;;;;;;;58.10;2.63;;;12.90;1.00;;;;;;5115509;27;20529;-66
2021/05/10 02:55:53;;;;;;;59.30;2.60;;;12.90;1.00;;;;;;5115596;28;20524;-66
2021/05/10 02:58:19;;;;;;;57.70;2.50;;;12.90;1.00;;;;;;5115561;28;20541;-67
2021/05/10 03:00:45;;;;;;;58.07;2.93;;;12.90;1.00;;;;;;5115366;28;20540;-65
2021/05/10 03:03:12;;;;;;;57.37;2.50;;;12.90;1.00;;;;;;5114873;28;20965;-66
2021/05/10 03:05:40;;;;;;;57.20;2.50;;;12.90;1.00;;;;;;5114869;28;20524;-65
2021/05/10 03:08:06;;;;;;;57.70;2.53;;;12.80;1.00;;;;;;5115344;28;20460;-66
2021/05/10 03:10:33;;;;;;;57.63;2.50;;;12.80;1.00;;;;;;5115171;27;20571;-66
2021/05/10 03:12:59;;;;;;;57.60;2.70;;;12.80;1.00;;;;;;5114943;28;20793;-66
2021/05/10 03:15:25;;;;;;;57.60;2.60;;;12.80;1.00;;;;;;5114858;28;20832;-66
2021/05/10 03:17:52;;;;;;;57.53;2.63;;;12.80;1.00;;;;;;5114657;28;20453;-67
2021/05/10 03:20:21;;;;;;;57.50;2.50;;;12.80;1.00;;;;;;5114893;28;20557;-66
2021/05/10 03:22:51;;;;;;;57.57;2.80;;;12.70;1.00;;;;;;5114756;28;20455;-66
2021/05/10 03:25:19;;;;;;;57.40;2.50;;;12.70;1.00;;;;;;5114880;28;20456;-67
2021/05/10 03:27:47;;;;;;;57.47;2.30;;;12.70;1.00;;;;;;5115068;28;20528;-67
2021/05/10 03:30:15;;;;;;;57.27;2.37;;;12.70;1.00;;;;;;5115065;28;20484;-67
2021/05/10 03:32:41;;;;;;;57.37;2.33;;;12.70;1.00;;;;;;5114232;28;21020;-66
2021/05/10 03:35:09;;;;;;;57.53;2.50;;;12.70;1.00;;;;;;5114966;28;20445;-65
2021/05/10 03:37:36;;;;;;;57.27;2.10;;;12.70;1.00;;;;;;5114660;28;20524;-66
2021/05/10 03:40:04;;;;;;;57.40;2.27;;;12.70;1.00;;;;;;5114008;28;20473;-65
2021/05/10 03:42:30;;;;;;;57.33;2.50;;;12.70;1.00;;;;;;5114310;28;20449;-65
2021/05/10 03:44:57;;;;;;;57.17;2.30;;;12.70;1.00;;;;;;5114369;28;20457;-66
2021/05/10 03:47:32;;;;;;;57.43;2.33;;;12.80;1.00;;;;;;5114537;28;20437;-66
2021/05/10 03:49:59;;;;;;;57.30;2.30;;;12.80;1.00;;;;;;5114421;28;20485;-66
2021/05/10 03:52:26;;;;;;;57.67;2.37;;;12.90;1.00;;;;;;5114425;28;20791;-66
2021/05/10 03:54:52;;;;;;;57.50;2.60;;;12.90;1.00;;;;;;5114316;28;20659;-66
2021/05/10 03:57:19;;;;;;;57.70;2.80;;;12.90;1.00;;;;;;5114322;28;21024;-66
2021/05/10 03:59:46;;;;;;;57.63;2.57;;;13.00;1.00;;;;;;5114010;28;20549;-66
2021/05/10 04:02:12;;;;;;;57.17;2.50;;;13.00;1.00;;;;;;5114081;28;20877;-66
2021/05/10 04:04:41;;;;;;;57.60;2.30;;;13.10;1.00;;;;;;5114115;28;20442;-66
2021/05/10 04:07:19;;;;;;;57.90;2.77;;;13.20;1.00;;;;;;5114032;28;20544;-66
2021/05/10 04:15:41;;;;;;;57.30;2.50;;;13.40;1.00;;;;;;5108966;28;20482;-66
2021/05/10 04:18:07;;;;;;;57.30;2.40;;;13.50;1.00;;;;;;5109307;28;20525;-67
2021/05/10 04:20:34;;;;;;;57.13;2.20;;;13.50;1.00;;;;;;5108853;28;20488;-66
2021/05/10 04:23:00;;;;;;;57.47;2.30;;;13.60;1.00;;;;;;5108820;28;20472;-67
2021/05/10 04:25:26;;;;;;;57.17;2.40;;;13.60;1.00;;;;;;5109147;28;20516;-66
2021/05/10 04:27:53;;;;;;;57.27;2.80;;;13.60;1.00;;;;;;5109257;28;20490;-66
2021/05/10 04:30:21;;;;;;;57.80;2.60;;;13.60;1.00;;;;;;5108941;28;20461;-65
2021/05/10 04:32:47;;;;;;;57.17;2.50;;;13.60;1.00;;;;;;5108571;28;21017;-66
2021/05/10 04:35:13;;;;;;;57.37;2.80;;;13.60;1.00;;;;;;5108691;28;20540;-65
2021/05/10 04:37:40;;;;;;;57.07;2.20;;;13.70;1.00;;;;;;5109044;28;21005;-66
2021/05/10 04:40:08;;;;;;;57.70;2.40;;;13.70;1.00;;;;;;5108705;28;20515;-67
2021/05/10 04:42:34;;;;;;;57.80;2.90;;;13.70;1.00;;;;;;5108465;28;20480;-66
2021/05/10 04:45:00;;;;;;;58.40;2.40;;;13.80;1.00;;;;;;5108515;28;20529;-66
2021/05/10 04:47:36;;;;;;;57.30;2.60;;;13.80;1.00;;;;;;5108739;28;20548;-65
2021/05/10 04:50:03;;;;;;;57.30;2.50;;;13.80;1.00;;;;;;5095002;28;20450;-66
2021/05/10 04:52:29;;;;;;;57.47;2.60;;;13.90;1.00;;;;;;5087942;28;20477;-66
2021/05/10 04:54:56;;;;;;;58.37;2.70;;;13.90;1.00;;;;;;5088164;28;20546;-66
2021/05/10 04:57:22;;;;;;;57.37;2.50;;;14.00;1.00;;;;;;5088417;28;20503;-65
2021/05/10 04:59:48;;;;;;;57.30;2.40;;;14.10;1.00;;;;;;5088215;28;20529;-66
2021/05/10 05:02:15;;;;;;;58.00;3.07;;;14.20;1.00;;;;;;5087491;28;20473;-66
2021/05/10 05:04:42;;;;;;;57.23;2.60;;;14.30;1.00;;;;;;5088055;28;20587;-66
2021/05/10 05:07:08;;;;;;;57.60;2.50;;;14.40;1.00;;;;;;5088162;28;20541;-65
2021/05/10 05:09:34;;;;;;;57.50;2.73;;;14.60;1.00;;;;;;5088143;28;20576;-67
2021/05/10 05:12:01;;;;;;;58.00;3.17;;;14.80;1.00;;;;;;5087390;28;20588;-67
2021/05/10 05:14:27;;;;;;;57.43;2.70;;;14.90;1.00;;;;;;5088053;28;20457;-66
2021/05/10 05:16:54;;;;;;;57.33;2.70;;;15.00;1.00;;;;;;5088149;28;20534;-66
2021/05/10 05:19:20;;;;;;;57.47;2.67;;;15.10;1.00;;;;;;5088077;28;20447;-66
2021/05/10 05:21:47;;;;;;;57.30;2.63;;;15.20;1.00;;;;;;5087906;28;20507;-66
2021/05/10 05:24:14;;;;;;;57.60;2.60;;;15.20;1.00;;;;;;5074078;28;20526;-66
2021/05/10 05:26:40;;;;;;;57.43;2.47;;;15.30;1.00;;;;;;5074244;28;20457;-66
2021/05/10 05:29:06;;;;;;;57.50;2.50;;;15.40;1.00;;;;;;5073882;28;20450;-66
2021/05/10 05:31:33;;;;;;;57.90;2.47;;;15.40;1.00;;;;;;5074124;28;20571;-65
2021/05/10 05:33:59;;;;;;;58.00;3.50;;;15.40;1.00;;;;;;5073745;28;20542;-66
2021/05/10 05:36:25;;;;;;;57.57;2.70;;;15.50;1.00;;;;;;5074048;28;20499;-66
2021/05/10 05:38:52;;;;;;;57.77;2.97;;;15.50;1.00;;;;;;5073729;28;20473;-66
2021/05/10 05:41:19;;;;;;;58.00;3.10;;;15.50;1.00;;;;;;5073915;28;20554;-66
2021/05/10 05:43:45;;;;;;;57.80;2.90;;;15.60;1.00;;;;;;5073251;28;20504;-67
2021/05/10 05:46:14;;;;;;;57.10;2.67;;;15.70;1.00;;;;;;5073891;28;20448;-66
2021/05/10 05:48:40;;;;;;;57.70;2.80;;;15.80;1.00;;;;;;5073465;28;20463;-66
2021/05/10 05:51:09;;;;;;;58.00;3.10;;;16.00;1.00;;;;;;5087425;28;20569;-66
2021/05/10 05:53:35;;;;;;;57.40;2.90;;;16.10;1.00;;;;;;5093490;28;20448;-65
2021/05/10 05:56:03;;;;;;;57.77;2.53;;;16.30;1.00;;;;;;5093760;28;20585;-66
2021/05/10 05:58:29;;;;;;;57.80;2.43;;;16.40;1.00;;;;;;5093601;28;20453;-66
2021/05/10 06:00:57;;;;;;;57.33;2.63;;;16.50;1.00;;;;;;5093936;28;20507;-67
2021/05/10 06:03:23;;;;;;;57.60;2.60;;;16.60;1.00;;;;;;5093289;28;21013;-66
2021/05/10 06:05:50;;;;;;;57.60;2.57;;;16.80;1.00;;;;;;5093667;28;20487;-66
2021/05/10 06:08:16;;;;;;;59.37;2.60;;;16.80;1.00;;;;;;5092398;28;20501;-67
2021/05/10 06:10:43;;;;;;;58.10;2.90;;;16.90;1.00;;;;;;5091299;28;20550;-66
2021/05/10 06:13:10;;;;;;;57.07;2.40;;;17.00;1.00;;;;;;5091754;28;20882;-66
2021/05/10 06:15:37;;;;;;;57.80;3.23;;;17.00;1.00;;;;;;5091557;28;21003;-66
2021/05/10 06:18:03;;;;;;;57.57;2.93;;;17.10;1.00;;;;;;5091996;28;20455;-66
2021/05/10 06:20:30;;;;;;;58.30;2.90;;;17.20;1.00;;;;;;5091815;28;20502;-66
2021/05/10 06:22:56;;;;;;;57.60;2.87;;;17.30;1.00;;;;;;5092215;28;20954;-66
2021/05/10 06:25:22;;;;;;;57.37;2.60;;;17.30;1.00;;;;;;5093165;28;20499;-67
2021/05/10 06:27:50;;;;;;;59.40;2.77;;;17.40;1.00;;;;;;5093334;28;20484;-66
2021/05/10 06:30:18;;;;;;;57.27;2.77;;;17.50;1.00;;;;;;5093263;28;20552;-66
2021/05/10 06:32:48;;;;;;;57.70;2.43;;;17.60;1.00;;;;;;5092966;28;20834;-66
2021/05/10 06:35:14;;;;;;;57.27;2.30;;;17.70;1.00;;;;;;5091825;28;20455;-66
2021/05/10 06:37:40;;;;;;;57.57;2.47;;;17.80;1.00;;;;;;5093122;28;20453;-66
2021/05/10 06:40:08;;;;;;;57.60;2.40;;;18.00;1.00;;;;;;5092925;28;20544;-67
2021/05/10 06:42:34;;;;;;;57.27;2.20;;;18.10;1.00;;;;;;5092674;28;20453;-65
2021/05/10 06:45:02;;;;;;;57.10;2.20;;;18.40;1.00;;;;;;5092763;28;20540;-65
2021/05/10 06:47:29;;;;;;;57.60;2.60;;;18.60;1.00;;;;;;5092986;28;20449;-66
2021/05/10 06:49:56;;;;;;;57.77;2.73;;;18.80;1.00;;;;;;5092977;28;20449;-66
2021/05/10 06:52:22;;;;;;;57.67;2.43;;;19.00;1.00;;;;;;5089730;28;20500;-66
2021/05/10 06:54:48;;;;;;;57.40;2.30;;;19.10;1.00;;;;;;5092449;28;20485;-65
2021/05/10 06:57:15;;;;;;;57.07;2.40;;;19.20;1.00;;;;;;5092926;28;20536;-65
2021/05/10 06:59:42;;;;;;;57.20;2.30;;;19.40;1.00;;;;;;5092512;28;20469;-66
2021/05/10 07:02:08;;;;;;;57.17;2.30;;;19.60;1.00;;;;;;5092313;28;20884;-66
2021/05/10 07:04:35;;;;;;;57.07;2.30;;;19.80;1.00;;;;;;5092330;28;20533;-65
2021/05/10 07:07:02;;;;;;;57.40;2.10;;;19.90;1.00;;;;;;5092291;28;20529;-66
2021/05/10 07:09:28;;;;;;;57.43;2.27;;;20.10;1.00;;;;;;5091997;28;20474;-66
2021/05/10 07:11:54;;;;;;;57.60;2.50;;;20.20;1.00;;;;;;5091650;28;21016;-66
2021/05/10 07:14:21;;;;;;;57.00;2.50;;;20.40;1.00;;;;;;5070931;28;20463;-65
2021/05/10 07:16:47;;;;;;;57.10;2.37;;;20.50;1.00;;;;;;5092309;28;20458;-65
2021/05/10 07:19:14;;;;;;;56.97;2.30;;;20.70;1.00;;;;;;5092069;28;20448;-66
2021/05/10 07:21:41;;;;;;;57.40;2.63;;;20.80;1.00;;;;;;5092088;28;21006;-65
2021/05/10 07:24:08;;;;;;;57.20;2.60;;;20.90;1.00;;;;;;5091853;28;20538;-66
2021/05/10 07:26:35;;;;;;;57.27;2.47;;;21.00;1.00;;;;;;5091973;28;20534;-66
2021/05/10 07:29:02;;;;;;;57.30;2.43;;;21.00;1.00;;;;;;5092248;28;20481;-65
2021/05/10 07:31:28;;;;;;;57.03;2.13;;;20.90;1.00;;;;;;5091860;28;20601;-65
2021/05/10 07:33:54;;;;;;;57.83;2.60;;;20.90;1.00;;;;;;5091479;28;20529;-66
2021/05/10 07:36:21;;;;;;;57.40;2.37;;;21.00;1.00;;;;;;5091669;28;20982;-66
2021/05/10 07:38:48;;;;;;;57.50;2.83;;;21.10;1.00;;;;;;5092311;28;20499;-65
2021/05/10 07:41:15;;;;;;;57.13;2.20;;;21.40;1.00;;;;;;5091945;28;20524;-66
2021/05/10 07:43:42;;;;;;;58.47;2.50;;;21.80;1.00;;;;;;5089143;28;20490;-66
2021/05/10 07:46:08;;;;;;;57.07;2.47;;;22.00;1.00;;;;;;5091376;28;20515;-65
2021/05/10 07:48:35;;;;;;;57.37;2.47;;;22.20;1.00;;;;;;5091677;28;20541;-65
2021/05/10 07:51:01;;;;;;;57.27;2.20;;;22.30;1.00;;;;;;5091442;28;20608;-66
2021/05/10 07:53:27;;;;;;;57.10;2.50;;;22.30;1.00;;;;;;5091489;28;20458;-65
2021/05/10 07:55:55;;;;;;;57.10;2.40;;;22.40;1.00;;;;;;5091917;28;20544;-66
2021/05/10 07:58:21;;;;;;;57.07;2.20;;;22.40;1.00;;;;;;5091723;28;20540;-67
2021/05/10 08:00:51;;;;;;;57.40;2.20;;;22.40;1.00;;;;;;5091653;28;20473;-66
2021/05/10 08:03:18;;;;;;;57.80;2.33;;;22.30;1.00;;;;;;5091224;28;20833;-66
2021/05/10 08:05:45;;;;;;;57.20;2.30;;;22.20;1.00;;;;;;5091513;28;20486;-65
2021/05/10 08:08:13;;;;;;;56.80;2.20;;;22.20;1.00;;;;;;5091795;28;20453;-66
2021/05/10 08:10:39;;;;;;;56.93;2.00;;;22.30;1.00;;;;;;5091591;28;20473;-65
2021/05/10 08:13:07;;;;;;;57.07;2.17;;;22.40;1.00;;;;;;5091267;28;20566;-66
2021/05/10 08:15:33;;;;;;;56.77;2.20;;;22.30;1.00;;;;;;5091311;28;20862;-66
2021/05/10 08:18:00;;;;;;;57.17;2.50;;;22.30;1.00;;;;;;5091336;28;20481;-67
2021/05/10 08:20:26;;;;;;;56.97;2.30;;;22.30;1.00;;;;;;5091828;28;20883;-66
2021/05/10 08:22:52;;;;;;;57.17;2.30;;;22.30;1.00;;;;;;5091273;28;20456;-65
2021/05/10 08:25:19;;;;;;;57.07;2.60;;;22.30;1.00;;;;;;5091345;28;20836;-66
2021/05/10 08:27:45;;;;;;;57.07;2.30;;;22.40;1.00;;;;;;5091554;28;20544;-66
2021/05/10 08:30:15;;;;;;;57.20;2.37;;;22.60;1.00;;;;;;5091229;28;20491;-66
2021/05/10 08:32:41;;;;;;;57.80;2.50;;;23.00;1.00;;;;;;5091343;28;21003;-66
2021/05/10 08:35:09;;;;;;;57.07;2.37;;;23.40;1.00;;;;;;5091389;28;20453;-66
2021/05/10 08:37:37;;;;;;;57.07;2.27;;;23.60;1.00;;;;;;5091613;28;20954;-66
2021/05/10 08:40:04;;;;;;;57.03;2.30;;;23.70;1.00;;;;;;5090994;28;20442;-66
2021/05/10 08:42:31;;;;;;;60.43;3.43;;;23.70;1.00;;;;;;5090958;28;20473;-66
2021/05/10 08:44:59;;;;;;;57.13;2.50;;;23.80;1.00;;;;;;5091073;28;20447;-66
2021/05/10 08:47:32;;;;;;;57.70;2.40;;;23.80;1.00;;;;;;5091343;28;20508;-65
2021/05/10 08:49:59;;;;;;;57.07;2.33;;;23.70;1.00;;;;;;5091194;28;20827;-66
2021/05/10 08:52:26;;;;;;;56.87;2.43;;;23.60;1.00;;;;;;5090689;28;20573;-65
2021/05/10 08:54:52;;;;;;;56.67;2.30;;;23.50;1.00;;;;;;5090997;28;20545;-67
2021/05/10 08:57:19;;;;;;;57.17;2.60;;;23.40;1.00;;;;;;5091594;28;20966;-66
2021/05/10 08:59:45;;;;;;;57.07;2.43;;;23.40;1.00;;;;;;5094838;28;20477;-66
2021/05/10 09:02:12;;;;;;;57.10;2.20;;;23.60;1.00;;;;;;5094499;28;20923;-65
2021/05/10 09:04:40;;;;;;;56.87;2.40;;;23.80;1.00;;;;;;5094836;28;20535;-65
2021/05/10 09:07:11;;;;;;;57.50;2.60;;;24.00;1.00;;;;;;5094813;28;20533;-66
2021/05/10 09:09:53;;;;;;;57.10;2.30;;;24.00;1.00;;;;;;5094904;28;20854;-66
2021/05/10 09:12:22;;;;;;;57.40;2.43;;;24.00;1.00;;;;;;5093943;28;20486;-66
2021/05/10 09:14:49;;;;;;;57.20;2.50;;;24.00;1.00;;;;;;5094631;28;20449;-66
2021/05/10 09:17:15;;;;;;;56.73;2.20;;;23.90;1.00;;;;;;5094572;28;21021;-66
2021/05/10 09:19:45;;;;;;;57.20;2.40;;;23.80;1.00;;;;;;5094662;28;20504;-66
2021/05/10 09:22:12;;;;;;;57.40;2.77;;;23.90;1.00;;;;;;5094566;28;20837;-65
2021/05/10 09:24:46;;;;;;;57.00;2.20;;;24.00;1.00;;;;;;5094066;28;20482;-66
2021/05/10 09:27:25;;;;;;;56.97;2.17;;;24.00;1.00;;;;;;5094577;28;20481;-66
2021/05/10 09:30:11;;;;;;;57.07;2.50;;;23.90;1.00;;;;;;5094543;28;20597;-67
2021/05/10 09:32:38;;;;;;;57.30;2.37;;;23.90;1.00;;;;;;5093901;28;21012;-66
2021/05/10 09:35:23;;;;;;;57.30;2.37;;;23.80;1.00;;;;;;5093868;28;20530;-66
2021/05/10 09:38:05;;;;;;;56.97;2.20;;;23.90;1.00;;;;;;5094294;28;20457;-66
2021/05/10 09:40:43;;;;;;;57.20;2.20;;;24.00;1.00;;;;;;5094164;28;20469;-66
2021/05/10 09:43:11;;;;;;;56.90;2.10;;;24.30;1.00;;;;;;5093823;28;20867;-66
2021/05/10 09:45:45;;;;;;;56.93;2.03;;;24.50;1.00;;;;;;5093760;28;20809;-65
2021/05/10 09:48:23;;;;;;;56.67;2.13;;;24.60;1.00;;;;;;5094107;28;20953;-65
2021/05/10 09:50:57;;;;;;;57.07;2.10;;;24.50;1.00;;;;;;5094173;28;20474;-66
2021/05/10 09:53:34;;;;;;;57.30;2.30;;;24.60;1.00;;;;;;5093541;28;20482;-65
2021/05/10 09:56:02;;;;;;;57.67;2.27;;;24.90;1.00;;;;;;5093665;28;20438;-66
2021/05/10 09:58:43;;;;;;;57.10;2.10;;;25.00;1.00;;;;;;5093865;28;20496;-66
2021/05/10 10:01:11;;;;;;;57.00;2.00;;;25.40;1.00;;;;;;5094101;28;20854;-66
2021/05/10 10:03:39;;;;;;;57.00;2.30;;;25.70;1.00;;;;;;5093294;28;20826;-66
2021/05/10 10:06:10;;;;;;;57.07;2.00;;;25.90;1.00;;;;;;5092807;28;20534;-66
2021/05/10 10:08:38;;;;;;;56.90;1.93;;;25.90;1.00;;;;;;5090776;28;20515;-65
2021/05/10 10:11:07;;;;;;;56.87;2.03;;;26.10;1.00;;;;;;5093409;28;20881;-66
2021/05/10 10:13:34;;;;;;;56.67;1.90;;;26.50;1.00;;;;;;5093157;28;20448;-65
2021/05/10 10:16:02;;;;;;;57.83;2.00;;;26.70;1.00;;;;;;5093681;28;20593;-66
2021/05/10 10:18:28;;;;;;;56.67;1.90;;;26.60;1.00;;;;;;5093333;28;20491;-66
2021/05/10 10:20:56;;;;;;;57.10;2.20;;;26.20;1.00;;;;;;5093086;28;20558;-66
2021/05/10 10:23:26;;;;;;;57.10;2.00;;;25.90;1.00;;;;;;5092951;28;20478;-66
2021/05/10 10:25:54;;;;;;;56.97;2.00;;;25.60;1.00;;;;;;5093137;28;20451;-66
2021/05/10 10:28:22;;;;;;;56.97;1.93;;;25.20;1.00;;;;;;5093239;28;20453;-66
2021/05/10 10:30:56;;;;;;;57.30;2.17;;;25.00;1.00;;;;;;5093121;28;20470;-66
2021/05/10 10:33:31;;;;;;;56.67;1.90;;;24.70;1.00;;;;;;5092591;28;20488;-66
2021/05/10 10:35:59;;;;;;;56.80;1.80;;;24.50;1.00;;;;;;5093204;28;20455;-66
2021/05/10 10:38:34;;;;;;;56.97;1.90;;;24.50;1.00;;;;;;5089473;28;20453;-66
2021/05/10 10:41:24;;;;;;;56.60;1.73;;;24.50;1.00;;;;;;5092869;28;20555;-67
2021/05/10 10:43:52;;;;;;;56.77;1.93;;;24.40;1.00;;;;;;5092248;28;20529;-66
2021/05/10 10:46:26;;;;;;;57.00;1.97;;;24.50;1.00;;;;;;5092980;28;20536;-66
2021/05/10 10:48:58;;;;;;;57.00;2.00;;;24.50;1.00;;;;;;5092852;28;20495;-66
2021/05/10 10:51:25;;;;;;;56.77;2.00;;;24.60;1.00;;;;;;5092738;28;20515;-66
2021/05/10 10:53:55;;;;;;;56.73;2.00;;;24.80;1.00;;;;;;5092297;28;20458;-66
2021/05/10 10:56:47;;;;;;;56.67;1.90;;;25.10;1.00;;;;;;5092590;28;20452;-65
2021/05/10 10:59:24;;;;;;;56.57;2.07;;;25.40;1.00;;;;;;5092786;28;20443;-65
2021/05/10 11:01:51;;;;;;;57.10;2.00;;;25.60;1.00;;;;;;5092118;28;20545;-65
2021/05/10 11:04:25;;;;;;;56.80;2.03;;;25.50;1.00;;;;;;5092676;28;20474;-66
2021/05/10 11:06:52;;;;;;;56.90;1.90;;;25.30;1.00;;;;;;5092150;28;20861;-66
2021/05/10 11:09:50;;;;;;;57.07;2.30;;;25.10;1.00;;;;;;5092363;28;20452;-66
2021/05/10 11:12:50;;;;;;;57.00;2.20;;;25.00;1.00;;;;;;5091357;28;20525;-66
2021/05/10 11:15:45;;;;;;;56.90;2.00;;;24.80;1.00;;;;;;5091831;28;20453;-66
2021/05/10 11:18:12;;;;;;;56.97;2.00;;;24.50;1.00;;;;;;5092610;28;20461;-66
2021/05/10 11:20:39;;;;;;;56.43;1.80;;;24.30;1.00;;;;;;5091766;28;20491;-67
2021/05/10 11:23:39;;;;;;;56.87;1.90;;;24.10;1.00;;;;;;5092263;28;20449;-66
2021/05/10 11:26:08;;;;;;;56.87;2.10;;;23.80;1.00;;;;;;5089260;28;20458;-66
2021/05/10 11:28:42;;;;;;;56.73;1.90;;;23.50;1.00;;;;;;5091760;28;20451;-65
2021/05/10 11:31:10;;;;;;;56.83;2.10;;;23.40;1.00;;;;;;5092348;28;20473;-66
2021/05/10 11:34:03;;;;;;;56.97;2.10;;;23.30;1.00;;;;;;5091634;28;20977;-66
2021/05/10 11:36:33;;;;;;;57.10;2.10;;;23.20;1.00;;;;;;5092263;28;20442;-66
2021/05/10 11:39:01;;;;;;;56.77;2.00;;;23.00;1.00;;;;;;5091408;28;20581;-66
2021/05/10 11:41:29;;;;;;;57.20;1.97;;;22.90;1.00;;;;;;5091873;28;20561;-66
2021/05/10 11:43:57;;;;;;;56.93;1.90;;;22.70;1.00;;;;;;5091552;28;20446;-66
2021/05/10 11:46:38;;;;;;;56.90;2.07;;;22.60;1.00;;;;;;5091411;28;20445;-66
2021/05/10 11:49:06;;;;;;;56.40;2.37;;;22.60;1.00;;;;;;5091698;28;20544;-65
2021/05/10 11:51:36;;;;;;;56.77;2.10;;;22.50;1.00;;;;;;5091739;28;20487;-65
2021/05/10 11:54:04;;;;;;;57.30;2.50;;;22.50;1.00;;;;;;5091532;28;20450;-66
2021/05/10 11:56:36;;;;;;;56.87;2.10;;;22.40;1.00;;;;;;5088507;28;21004;-67
2021/05/10 11:59:10;;;;;;;56.97;2.20;;;22.30;1.00;;;;;;5091742;28;20817;-66
2021/05/10 12:01:40;;;;;;;57.20;2.10;;;22.30;1.00;;;;;;5072808;28;20553;-66
2021/05/10 12:04:17;;;;;;;56.73;2.10;;;22.30;1.00;;;;;;5089115;28;20448;-66
2021/05/10 12:06:44;;;;;;;56.77;2.10;;;22.30;1.00;;;;;;5091615;28;20452;-67
2021/05/10 12:09:46;;;;;;;56.67;2.10;;;22.30;1.00;;;;;;5091422;28;20539;-67
2021/05/10 12:12:29;;;;;;;57.07;2.10;;;22.10;1.00;;;;;;5085876;28;20553;-67
2021/05/10 12:14:58;;;;;;;56.97;2.27;;;21.90;1.00;;;;;;5091510;28;20459;-67
2021/05/10 12:17:26;;;;;;;56.93;2.00;;;21.70;1.00;;;;;;5091441;28;20444;-67
2021/05/10 12:20:01;;;;;;;57.10;2.13;;;21.60;1.00;;;;;;5091301;28;20453;-65
2021/05/10 12:22:28;;;;;;;57.07;2.30;;;21.60;1.00;;;;;;5091279;28;20477;-67
2021/05/10 12:24:59;;;;;;;57.20;2.23;;;21.50;1.00;;;;;;5091266;28;20483;-67
2021/05/10 12:27:29;;;;;;;56.77;2.10;;;21.50;1.00;;;;;;5091572;28;20476;-66
2021/05/10 12:29:56;;;;;;;57.07;2.13;;;21.60;1.00;;;;;;5091125;28;20447;-66
2021/05/10 12:32:23;;;;;;;57.00;2.00;;;21.60;1.00;;;;;;5075832;28;20486;-66
2021/05/10 12:34:50;;;;;;;57.00;2.10;;;21.50;1.00;;;;;;5089859;28;20885;-66
2021/05/10 12:37:17;;;;;;;57.10;2.00;;;21.40;1.00;;;;;;5095528;28;20452;-66
2021/05/10 12:39:43;;;;;;;56.63;2.07;;;21.30;1.00;;;;;;5095686;28;20790;-66
2021/05/10 12:42:14;;;;;;;56.53;2.10;;;21.30;1.00;;;;;;5095302;28;20474;-66
2021/05/10 12:44:42;;;;;;;56.97;2.10;;;21.30;1.00;;;;;;5094984;28;20445;-66
2021/05/10 12:47:08;;;;;;;56.53;2.00;;;21.30;1.00;;;;;;5095220;28;20488;-66
2021/05/10 12:49:43;;;;;;;56.90;2.00;;;21.40;1.00;;;;;;5095014;28;21003;-67
2021/05/10 12:52:09;;;;;;;56.57;2.00;;;21.40;1.00;;;;;;5094708;28;20924;-66
2021/05/10 12:54:41;;;;;;;57.07;2.17;;;21.30;1.00;;;;;;5094905;28;20530;-66
2021/05/10 12:57:08;;;;;;;57.00;2.07;;;21.40;1.00;;;;;;5087620;28;20448;-66
2021/05/10 12:59:48;;;;;;;56.83;2.00;;;21.50;1.00;;;;;;5074537;28;20532;-64